sensor_id;sensor_type;location;lat;lon;timestamp;pressure;altitude;pressure_sealevel;temperature;humidity
818;BME280;391;51.052;6.954;2023-02-01T00:01:07;101381.53;;;7.47;92.48
818;BME280;391;51.052;6.954;2023-02-01T00:03:12;101397.41;;;7.53;92.45
818;BME280;391;51.052;6.954;2023-02-01T00:05:16;101389.53;;;7.51;92.07
818;BME280;391;51.052;6.954;2023-02-01T00:07:20;101397.78;;;7.60;91.79
818;BME280;391;51.052;6.954;2023-02-01T00:09:23;101399.50;;;7.60;91.58
818;BME280;391;51.052;6.954;2023-02-01T00:11:27;101410.75;;;7.60;91.38
818;BME280;391;51.052;6.954;2023-02-01T00:13:31;101406.16;;;7.55;91.42
818;BME280;391;51.052;6.954;2023-02-01T00:15:35;101414.44;;;7.47;90.90
818;BME280;391;51.052;6.954;2023-02-01T00:17:38;101411.84;;;7.47;91.05
818;BME280;391;51.052;6.954;2023-02-01T00:19:43;101411.22;;;7.35;91.35
818;BME280;391;51.052;6.954;2023-02-01T00:21:47;101414.44;;;7.47;91.15
818;BME280;391;51.052;6.954;2023-02-01T00:23:50;101406.75;;;7.49;91.02
818;BME280;391;51.052;6.954;2023-02-01T00:25:54;101401.72;;;7.36;91.00
818;BME280;391;51.052;6.954;2023-02-01T00:27:57;101396.91;;;7.43;91.32
818;BME280;391;51.052;6.954;2023-02-01T00:30:01;101395.47;;;7.49;91.39
818;BME280;391;51.052;6.954;2023-02-01T00:32:05;101402.16;;;7.27;92.10
818;BME280;391;51.052;6.954;2023-02-01T00:34:10;101391.19;;;7.33;92.73
818;BME280;391;51.052;6.954;2023-02-01T00:36:16;101390.94;;;7.28;92.60
818;BME280;391;51.052;6.954;2023-02-01T00:38:20;101392.91;;;7.32;92.91
818;BME280;391;51.052;6.954;2023-02-01T00:40:23;101388.66;;;7.34;92.67
818;BME280;391;51.052;6.954;2023-02-01T00:42:27;101381.41;;;7.27;92.40
818;BME280;391;51.052;6.954;2023-02-01T00:44:30;101386.91;;;7.17;92.84
818;BME280;391;51.052;6.954;2023-02-01T00:46:36;101390.41;;;7.18;92.69
818;BME280;391;51.052;6.954;2023-02-01T00:48:40;101376.88;;;7.23;92.63
818;BME280;391;51.052;6.954;2023-02-01T00:50:44;101390.88;;;7.27;92.15
818;BME280;391;51.052;6.954;2023-02-01T00:52:49;101384.16;;;7.14;91.88
818;BME280;391;51.052;6.954;2023-02-01T00:54:52;101388.13;;;7.08;91.70
818;BME280;391;51.052;6.954;2023-02-01T00:56:56;101390.94;;;7.12;91.72
818;BME280;391;51.052;6.954;2023-02-01T00:58:59;101378.66;;;7.08;90.77
818;BME280;391;51.052;6.954;2023-02-01T01:01:09;101363.81;;;7.06;90.81
818;BME280;391;51.052;6.954;2023-02-01T01:03:13;101358.47;;;7.03;89.54
818;BME280;391;51.052;6.954;2023-02-01T01:05:20;101352.63;;;7.07;89.08
818;BME280;391;51.052;6.954;2023-02-01T01:07:24;101337.41;;;7.13;88.24
818;BME280;391;51.052;6.954;2023-02-01T01:09:28;101336.66;;;6.99;87.04
818;BME280;391;51.052;6.954;2023-02-01T01:11:34;101330.03;;;6.88;85.79
818;BME280;391;51.052;6.954;2023-02-01T01:13:41;101240.41;;;6.43;85.69
818;BME280;391;51.052;6.954;2023-02-01T01:15:44;101338.31;;;6.97;84.83
818;BME280;391;51.052;6.954;2023-02-01T01:17:47;101357.19;;;7.11;84.54
818;BME280;391;51.052;6.954;2023-02-01T01:19:51;101365.03;;;7.12;83.66
818;BME280;391;51.052;6.954;2023-02-01T01:21:54;101371.09;;;7.13;82.47
818;BME280;391;51.052;6.954;2023-02-01T01:23:58;101375.72;;;7.02;82.26
818;BME280;391;51.052;6.954;2023-02-01T01:26:06;101386.81;;;7.00;82.56
818;BME280;391;51.052;6.954;2023-02-01T01:28:09;101385.44;;;7.06;82.18
818;BME280;391;51.052;6.954;2023-02-01T01:30:13;101394.38;;;7.11;81.85
818;BME280;391;51.052;6.954;2023-02-01T01:32:18;101397.59;;;7.07;81.54
818;BME280;391;51.052;6.954;2023-02-01T01:34:21;101397.28;;;7.01;81.26
818;BME280;391;51.052;6.954;2023-02-01T01:36:26;101392.72;;;6.97;81.34
818;BME280;391;51.052;6.954;2023-02-01T01:38:30;101397.34;;;7.03;81.29
818;BME280;391;51.052;6.954;2023-02-01T01:40:34;101390.06;;;7.12;81.00
818;BME280;391;51.052;6.954;2023-02-01T01:42:40;101398.97;;;7.01;81.05
818;BME280;391;51.052;6.954;2023-02-01T01:44:58;101394.44;;;7.13;81.03
818;BME280;391;51.052;6.954;2023-02-01T01:47:03;101398.34;;;6.88;81.38
818;BME280;391;51.052;6.954;2023-02-01T01:49:10;101389.31;;;6.82;81.80
818;BME280;391;51.052;6.954;2023-02-01T01:51:18;101391.59;;;6.76;81.91
818;BME280;391;51.052;6.954;2023-02-01T01:53:27;101388.09;;;6.75;82.31
818;BME280;391;51.052;6.954;2023-02-01T01:55:35;101382.16;;;6.62;83.04
818;BME280;391;51.052;6.954;2023-02-01T01:57:43;101386.31;;;6.74;82.86
818;BME280;391;51.052;6.954;2023-02-01T01:59:56;101383.81;;;6.76;82.31
818;BME280;391;51.052;6.954;2023-02-01T02:02:16;101373.19;;;6.71;82.58
818;BME280;391;51.052;6.954;2023-02-01T02:04:21;101357.97;;;6.77;82.44
818;BME280;391;51.052;6.954;2023-02-01T02:06:33;101370.56;;;6.86;82.39
818;BME280;391;51.052;6.954;2023-02-01T02:08:39;101359.81;;;6.80;82.40
818;BME280;391;51.052;6.954;2023-02-01T02:10:43;101355.47;;;6.79;82.61
818;BME280;391;51.052;6.954;2023-02-01T02:13:05;101356.53;;;6.82;82.31
818;BME280;391;51.052;6.954;2023-02-01T02:15:11;101352.41;;;6.70;82.70
818;BME280;391;51.052;6.954;2023-02-01T02:17:25;101351.03;;;6.76;82.92
818;BME280;391;51.052;6.954;2023-02-01T02:20:04;101350.63;;;6.85;82.79
818;BME280;391;51.052;6.954;2023-02-01T02:22:38;101354.75;;;6.81;82.75
818;BME280;391;51.052;6.954;2023-02-01T02:27:31;101346.38;;;6.71;82.84
818;BME280;391;51.052;6.954;2023-02-01T02:32:39;101352.16;;;6.81;82.49
818;BME280;391;51.052;6.954;2023-02-01T02:34:54;101344.47;;;6.67;82.85
818;BME280;391;51.052;6.954;2023-02-01T02:37:04;101342.81;;;6.69;83.00
818;BME280;391;51.052;6.954;2023-02-01T02:39:16;101349.22;;;6.59;83.52
818;BME280;391;51.052;6.954;2023-02-01T02:41:29;101340.88;;;6.65;83.55
818;BME280;391;51.052;6.954;2023-02-01T02:43:57;101341.19;;;6.55;84.07
818;BME280;391;51.052;6.954;2023-02-01T02:46:23;101344.84;;;6.58;83.81
818;BME280;391;51.052;6.954;2023-02-01T02:48:47;101231.78;;;5.96;83.74
818;BME280;391;51.052;6.954;2023-02-01T02:51:00;101329.41;;;6.76;83.54
818;BME280;391;51.052;6.954;2023-02-01T02:53:24;101333.84;;;6.62;83.00
818;BME280;391;51.052;6.954;2023-02-01T02:55:49;101320.41;;;6.53;83.77
818;BME280;391;51.052;6.954;2023-02-01T02:57:54;101307.28;;;6.50;83.42
818;BME280;391;51.052;6.954;2023-02-01T03:00:19;101324.59;;;6.67;83.17
818;BME280;391;51.052;6.954;2023-02-01T03:02:43;101326.31;;;6.67;83.19
818;BME280;391;51.052;6.954;2023-02-01T03:05:05;101323.53;;;6.80;82.94
818;BME280;391;51.052;6.954;2023-02-01T03:07:14;101324.59;;;6.83;82.77
818;BME280;391;51.052;6.954;2023-02-01T03:09:24;101330.47;;;6.79;82.81
818;BME280;391;51.052;6.954;2023-02-01T03:11:31;101329.16;;;6.87;82.50
818;BME280;391;51.052;6.954;2023-02-01T03:13:51;101328.09;;;6.84;82.80
818;BME280;391;51.052;6.954;2023-02-01T03:15:59;101318.94;;;6.74;83.32
818;BME280;391;51.052;6.954;2023-02-01T03:18:08;101322.91;;;6.84;83.25
818;BME280;391;51.052;6.954;2023-02-01T03:20:14;101332.22;;;6.80;83.48
818;BME280;391;51.052;6.954;2023-02-01T03:22:27;101335.88;;;6.84;83.66
818;BME280;391;51.052;6.954;2023-02-01T03:24:38;101331.75;;;6.87;83.50
818;BME280;391;51.052;6.954;2023-02-01T03:26:48;101326.41;;;6.84;83.82
818;BME280;391;51.052;6.954;2023-02-01T03:28:55;101326.56;;;6.87;84.04
818;BME280;391;51.052;6.954;2023-02-01T03:31:01;101334.97;;;6.83;84.22
818;BME280;391;51.052;6.954;2023-02-01T03:33:07;101323.31;;;6.91;84.45
818;BME280;391;51.052;6.954;2023-02-01T03:35:17;101327.63;;;6.91;84.50
818;BME280;391;51.052;6.954;2023-02-01T03:37:25;101317.25;;;6.75;85.09
818;BME280;391;51.052;6.954;2023-02-01T03:39:32;101319.19;;;6.79;85.26
818;BME280;391;51.052;6.954;2023-02-01T03:41:40;101315.22;;;6.85;85.25
818;BME280;391;51.052;6.954;2023-02-01T03:43:51;101310.06;;;6.85;85.22
818;BME280;391;51.052;6.954;2023-02-01T03:46:01;101319.03;;;6.76;85.15
818;BME280;391;51.052;6.954;2023-02-01T03:48:07;101308.50;;;6.89;85.18
818;BME280;391;51.052;6.954;2023-02-01T03:50:14;101307.28;;;6.82;84.81
818;BME280;391;51.052;6.954;2023-02-01T03:52:24;101293.66;;;6.70;85.32
818;BME280;391;51.052;6.954;2023-02-01T03:54:29;101292.38;;;6.62;85.98
818;BME280;391;51.052;6.954;2023-02-01T03:56:36;101304.84;;;6.53;85.95
818;BME280;391;51.052;6.954;2023-02-01T03:58:41;101303.47;;;6.60;86.10
818;BME280;391;51.052;6.954;2023-02-01T04:01:01;101301.69;;;6.59;86.25
818;BME280;391;51.052;6.954;2023-02-01T04:03:07;101304.13;;;6.72;85.57
818;BME280;391;51.052;6.954;2023-02-01T04:05:11;101301.06;;;6.63;85.53
818;BME280;391;51.052;6.954;2023-02-01T04:07:21;101292.97;;;6.73;85.48
818;BME280;391;51.052;6.954;2023-02-01T04:09:26;101303.22;;;6.71;85.04
818;BME280;391;51.052;6.954;2023-02-01T04:11:30;101304.78;;;6.84;84.50
818;BME280;391;51.052;6.954;2023-02-01T04:13:33;101305.59;;;6.67;84.84
818;BME280;391;51.052;6.954;2023-02-01T04:15:37;101299.53;;;6.82;84.66
818;BME280;391;51.052;6.954;2023-02-01T04:17:40;101300.00;;;6.91;84.13
818;BME280;391;51.052;6.954;2023-02-01T04:19:44;101303.38;;;6.90;83.51
818;BME280;391;51.052;6.954;2023-02-01T04:21:47;101315.63;;;6.93;83.27
818;BME280;391;51.052;6.954;2023-02-01T04:23:51;101293.03;;;6.74;83.55
818;BME280;391;51.052;6.954;2023-02-01T04:26:00;101301.44;;;6.70;83.29
818;BME280;391;51.052;6.954;2023-02-01T04:28:04;101295.72;;;6.76;83.12
818;BME280;391;51.052;6.954;2023-02-01T04:30:10;101287.38;;;6.81;82.80
818;BME280;391;51.052;6.954;2023-02-01T04:32:13;101279.19;;;6.74;82.69
818;BME280;391;51.052;6.954;2023-02-01T04:34:18;101277.56;;;6.60;82.81
818;BME280;391;51.052;6.954;2023-02-01T04:36:22;101285.34;;;6.60;83.07
818;BME280;391;51.052;6.954;2023-02-01T04:38:25;101283.09;;;6.66;82.58
818;BME280;391;51.052;6.954;2023-02-01T04:40:31;101269.88;;;6.61;83.05
818;BME280;391;51.052;6.954;2023-02-01T04:42:36;101260.41;;;6.62;82.90
818;BME280;391;51.052;6.954;2023-02-01T04:44:39;101248.25;;;6.61;82.62
818;BME280;391;51.052;6.954;2023-02-01T04:46:45;101254.75;;;6.53;83.48
818;BME280;391;51.052;6.954;2023-02-01T04:48:48;101267.09;;;6.42;83.28
818;BME280;391;51.052;6.954;2023-02-01T04:50:52;101263.97;;;6.31;83.81
818;BME280;391;51.052;6.954;2023-02-01T04:52:55;101255.78;;;6.24;84.02
818;BME280;391;51.052;6.954;2023-02-01T04:54:59;101255.84;;;6.25;84.31
818;BME280;391;51.052;6.954;2023-02-01T04:57:04;101268.09;;;6.28;84.18
818;BME280;391;51.052;6.954;2023-02-01T04:59:10;101268.41;;;6.34;84.04
818;BME280;391;51.052;6.954;2023-02-01T05:01:14;101267.78;;;6.38;83.80
818;BME280;391;51.052;6.954;2023-02-01T05:03:17;101271.06;;;6.35;83.39
818;BME280;391;51.052;6.954;2023-02-01T05:05:21;101276.25;;;6.35;83.11
818;BME280;391;51.052;6.954;2023-02-01T05:07:24;101270.09;;;6.33;83.73
818;BME280;391;51.052;6.954;2023-02-01T05:09:28;101275.53;;;6.38;83.51
818;BME280;391;51.052;6.954;2023-02-01T05:11:31;101273.97;;;6.25;83.60
818;BME280;391;51.052;6.954;2023-02-01T05:13:52;101281.72;;;6.25;83.47
818;BME280;391;51.052;6.954;2023-02-01T05:15:57;101280.75;;;6.23;83.98
818;BME280;391;51.052;6.954;2023-02-01T05:18:01;101280.75;;;6.23;84.12
818;BME280;391;51.052;6.954;2023-02-01T05:20:05;101285.63;;;6.33;83.84
818;BME280;391;51.052;6.954;2023-02-01T05:22:12;101286.56;;;6.19;83.40
818;BME280;391;51.052;6.954;2023-02-01T05:24:15;101276.38;;;6.22;83.29
818;BME280;391;51.052;6.954;2023-02-01T05:26:22;101185.94;;;5.78;83.37
818;BME280;391;51.052;6.954;2023-02-01T05:28:25;101278.47;;;6.44;83.32
818;BME280;391;51.052;6.954;2023-02-01T05:30:29;101265.25;;;6.39;82.37
818;BME280;391;51.052;6.954;2023-02-01T05:32:36;101277.63;;;6.45;82.69
818;BME280;391;51.052;6.954;2023-02-01T05:34:39;101284.19;;;6.38;82.54
818;BME280;391;51.052;6.954;2023-02-01T05:36:42;101288.72;;;6.43;82.55
818;BME280;391;51.052;6.954;2023-02-01T05:38:46;101292.59;;;6.34;82.53
818;BME280;391;51.052;6.954;2023-02-01T05:40:49;101258.22;;;6.06;82.86
818;BME280;391;51.052;6.954;2023-02-01T05:42:53;101279.56;;;6.33;82.73
818;BME280;391;51.052;6.954;2023-02-01T05:44:56;101288.06;;;6.30;82.14
818;BME280;391;51.052;6.954;2023-02-01T05:46:59;101275.81;;;6.12;82.34
818;BME280;391;51.052;6.954;2023-02-01T05:49:04;101276.56;;;6.25;82.39
818;BME280;391;51.052;6.954;2023-02-01T05:51:09;101182.13;;;5.72;82.02
818;BME280;391;51.052;6.954;2023-02-01T05:53:13;101162.94;;;5.68;81.81
818;BME280;391;51.052;6.954;2023-02-01T05:55:16;101277.06;;;6.18;81.92
818;BME280;391;51.052;6.954;2023-02-01T05:57:20;101284.25;;;6.24;82.01
818;BME280;391;51.052;6.954;2023-02-01T05:59:23;101293.81;;;6.25;82.03
818;BME280;391;51.052;6.954;2023-02-01T06:01:27;101286.59;;;6.35;81.91
818;BME280;391;51.052;6.954;2023-02-01T06:03:30;101280.38;;;6.32;81.74
818;BME280;391;51.052;6.954;2023-02-01T06:05:35;101295.09;;;6.33;81.30
818;BME280;391;51.052;6.954;2023-02-01T06:07:39;101291.88;;;6.37;81.24
818;BME280;391;51.052;6.954;2023-02-01T06:09:42;101274.13;;;6.12;81.48
818;BME280;391;51.052;6.954;2023-02-01T06:11:46;101271.53;;;6.12;82.17
818;BME280;391;51.052;6.954;2023-02-01T06:13:49;101275.38;;;6.04;82.54
818;BME280;391;51.052;6.954;2023-02-01T06:15:53;101277.84;;;6.17;81.69
818;BME280;391;51.052;6.954;2023-02-01T06:17:57;101285.19;;;6.10;81.89
818;BME280;391;51.052;6.954;2023-02-01T06:20:01;101287.03;;;5.96;82.66
818;BME280;391;51.052;6.954;2023-02-01T06:22:06;101289.84;;;6.01;82.47
818;BME280;391;51.052;6.954;2023-02-01T06:24:10;101287.81;;;5.95;82.48
818;BME280;391;51.052;6.954;2023-02-01T06:26:14;101292.19;;;5.96;82.91
818;BME280;391;51.052;6.954;2023-02-01T06:28:19;101288.16;;;6.01;82.78
818;BME280;391;51.052;6.954;2023-02-01T06:30:23;101300.53;;;6.07;82.21
818;BME280;391;51.052;6.954;2023-02-01T06:32:27;101303.28;;;6.10;82.84
818;BME280;391;51.052;6.954;2023-02-01T06:34:30;101296.13;;;6.20;82.36
818;BME280;391;51.052;6.954;2023-02-01T06:36:34;101296.31;;;6.23;81.96
818;BME280;391;51.052;6.954;2023-02-01T06:38:39;101304.22;;;6.26;81.85
818;BME280;391;51.052;6.954;2023-02-01T06:40:43;101302.78;;;6.15;81.97
818;BME280;391;51.052;6.954;2023-02-01T06:42:48;101313.31;;;6.04;82.31
818;BME280;391;51.052;6.954;2023-02-01T06:44:52;101306.72;;;5.94;83.33
818;BME280;391;51.052;6.954;2023-02-01T06:46:55;101314.75;;;5.99;83.29
818;BME280;391;51.052;6.954;2023-02-01T06:48:59;101319.88;;;6.13;82.83
818;BME280;391;51.052;6.954;2023-02-01T06:51:03;101318.66;;;6.07;82.87
818;BME280;391;51.052;6.954;2023-02-01T06:53:07;101327.75;;;6.15;83.02
818;BME280;391;51.052;6.954;2023-02-01T06:55:12;101315.53;;;6.12;82.85
818;BME280;391;51.052;6.954;2023-02-01T06:57:15;101315.88;;;6.18;84.51
818;BME280;391;51.052;6.954;2023-02-01T06:59:19;101310.97;;;6.39;85.22
818;BME280;391;51.052;6.954;2023-02-01T07:01:22;101309.19;;;6.54;84.47
818;BME280;391;51.052;6.954;2023-02-01T07:03:26;101312.19;;;6.46;82.07
818;BME280;391;51.052;6.954;2023-02-01T07:05:29;101305.16;;;6.43;82.25
818;BME280;391;51.052;6.954;2023-02-01T07:07:33;101222.97;;;5.77;82.08
818;BME280;391;51.052;6.954;2023-02-01T07:09:39;101294.88;;;6.28;81.82
818;BME280;391;51.052;6.954;2023-02-01T07:11:44;101313.72;;;6.42;82.09
818;BME280;391;51.052;6.954;2023-02-01T07:13:48;101317.16;;;6.41;81.98
818;BME280;391;51.052;6.954;2023-02-01T07:15:53;101321.44;;;6.41;81.87
818;BME280;391;51.052;6.954;2023-02-01T07:17:56;101329.19;;;6.41;81.84
818;BME280;391;51.052;6.954;2023-02-01T07:20:00;101327.09;;;6.50;81.96
818;BME280;391;51.052;6.954;2023-02-01T07:22:04;101217.53;;;5.73;81.71
818;BME280;391;51.052;6.954;2023-02-01T07:24:07;101329.78;;;6.20;82.50
818;BME280;391;51.052;6.954;2023-02-01T07:26:12;101338.34;;;6.19;83.02
818;BME280;391;51.052;6.954;2023-02-01T07:28:17;101338.47;;;6.06;83.42
818;BME280;391;51.052;6.954;2023-02-01T07:30:21;101345.25;;;6.19;83.86
818;BME280;391;51.052;6.954;2023-02-01T07:32:25;101352.06;;;6.02;84.36
818;BME280;391;51.052;6.954;2023-02-01T07:34:28;101342.00;;;5.92;84.79
818;BME280;391;51.052;6.954;2023-02-01T07:36:32;101351.78;;;5.98;84.90
818;BME280;391;51.052;6.954;2023-02-01T07:38:36;101332.25;;;5.88;84.76
818;BME280;391;51.052;6.954;2023-02-01T07:40:40;101342.97;;;5.94;85.06
818;BME280;391;51.052;6.954;2023-02-01T07:42:43;101312.81;;;5.65;85.38
818;BME280;391;51.052;6.954;2023-02-01T07:44:48;101337.72;;;5.93;85.08
818;BME280;391;51.052;6.954;2023-02-01T07:46:52;101347.16;;;5.92;85.17
818;BME280;391;51.052;6.954;2023-02-01T07:48:55;101344.56;;;5.92;85.30
818;BME280;391;51.052;6.954;2023-02-01T07:51:00;101342.25;;;5.97;85.33
818;BME280;391;51.052;6.954;2023-02-01T07:53:03;101341.72;;;5.88;86.03
818;BME280;391;51.052;6.954;2023-02-01T07:55:08;101341.00;;;5.75;85.71
818;BME280;391;51.052;6.954;2023-02-01T07:57:11;101340.03;;;5.73;86.64
818;BME280;391;51.052;6.954;2023-02-01T07:59:15;101345.25;;;5.75;85.84
818;BME280;391;51.052;6.954;2023-02-01T08:01:21;101345.44;;;5.78;86.41
818;BME280;391;51.052;6.954;2023-02-01T08:03:26;101341.72;;;5.73;86.30
818;BME280;391;51.052;6.954;2023-02-01T08:05:30;101367.94;;;5.79;86.12
818;BME280;391;51.052;6.954;2023-02-01T08:07:33;101348.19;;;5.81;85.72
818;BME280;391;51.052;6.954;2023-02-01T08:09:37;101343.84;;;5.80;86.13
818;BME280;391;51.052;6.954;2023-02-01T08:11:40;101341.34;;;5.67;86.29
818;BME280;391;51.052;6.954;2023-02-01T08:13:44;101351.34;;;5.75;86.64
818;BME280;391;51.052;6.954;2023-02-01T08:15:48;101354.13;;;5.64;86.88
818;BME280;391;51.052;6.954;2023-02-01T08:17:53;101353.66;;;5.56;87.37
818;BME280;391;51.052;6.954;2023-02-01T08:19:57;101351.72;;;5.67;86.85
818;BME280;391;51.052;6.954;2023-02-01T08:22:00;101360.38;;;5.67;86.85
818;BME280;391;51.052;6.954;2023-02-01T08:24:09;101352.50;;;5.66;86.52
818;BME280;391;51.052;6.954;2023-02-01T08:26:15;101355.09;;;5.66;86.67
818;BME280;391;51.052;6.954;2023-02-01T08:28:19;101359.13;;;5.61;87.14
818;BME280;391;51.052;6.954;2023-02-01T08:30:22;101355.44;;;5.57;87.58
818;BME280;391;51.052;6.954;2023-02-01T08:32:26;101350.34;;;5.59;87.21
818;BME280;391;51.052;6.954;2023-02-01T08:34:31;101366.22;;;5.65;87.33
818;BME280;391;51.052;6.954;2023-02-01T08:36:37;101377.03;;;5.72;86.93
818;BME280;391;51.052;6.954;2023-02-01T08:38:41;101369.47;;;5.61;87.37
818;BME280;391;51.052;6.954;2023-02-01T08:40:44;101371.88;;;5.58;87.04
818;BME280;391;51.052;6.954;2023-02-01T08:42:48;101374.63;;;5.61;87.02
818;BME280;391;51.052;6.954;2023-02-01T08:44:54;101367.41;;;5.70;86.63
818;BME280;391;51.052;6.954;2023-02-01T08:46:58;101380.88;;;5.64;86.84
818;BME280;391;51.052;6.954;2023-02-01T08:49:01;101380.69;;;5.76;87.03
818;BME280;391;51.052;6.954;2023-02-01T08:51:08;101383.41;;;5.92;86.37
818;BME280;391;51.052;6.954;2023-02-01T08:53:12;101396.84;;;6.01;85.60
818;BME280;391;51.052;6.954;2023-02-01T08:55:16;101395.88;;;5.99;85.77
818;BME280;391;51.052;6.954;2023-02-01T08:57:19;101396.69;;;5.98;85.42
818;BME280;391;51.052;6.954;2023-02-01T08:59:23;101391.59;;;6.00;85.65
818;BME280;391;51.052;6.954;2023-02-01T09:01:29;101398.66;;;6.02;85.53
818;BME280;391;51.052;6.954;2023-02-01T09:03:33;101403.81;;;5.88;85.86
818;BME280;391;51.052;6.954;2023-02-01T09:05:37;101397.22;;;5.93;86.02
818;BME280;391;51.052;6.954;2023-02-01T09:07:52;101390.19;;;5.90;86.29
818;BME280;391;51.052;6.954;2023-02-01T09:09:55;101392.41;;;5.99;86.15
818;BME280;391;51.052;6.954;2023-02-01T09:12:03;101396.66;;;6.13;86.02
818;BME280;391;51.052;6.954;2023-02-01T09:14:07;101388.88;;;6.13;85.53
818;BME280;391;51.052;6.954;2023-02-01T09:16:10;101380.88;;;6.08;85.24
818;BME280;391;51.052;6.954;2023-02-01T09:18:14;101381.75;;;6.23;85.00
818;BME280;391;51.052;6.954;2023-02-01T09:20:18;101378.47;;;6.11;85.53
818;BME280;391;51.052;6.954;2023-02-01T09:22:26;101381.22;;;6.14;85.79
818;BME280;391;51.052;6.954;2023-02-01T09:24:31;101384.88;;;6.18;85.35
818;BME280;391;51.052;6.954;2023-02-01T09:26:35;101373.28;;;6.11;85.19
818;BME280;391;51.052;6.954;2023-02-01T09:28:39;101384.19;;;6.06;85.33
818;BME280;391;51.052;6.954;2023-02-01T09:30:42;101384.25;;;6.07;85.36
818;BME280;391;51.052;6.954;2023-02-01T09:32:46;101383.38;;;6.07;85.50
818;BME280;391;51.052;6.954;2023-02-01T09:34:50;101386.25;;;5.97;85.74
818;BME280;391;51.052;6.954;2023-02-01T09:36:53;101397.28;;;6.23;85.75
818;BME280;391;51.052;6.954;2023-02-01T09:38:57;101382.63;;;6.24;85.13
818;BME280;391;51.052;6.954;2023-02-01T09:41:10;101377.47;;;6.24;84.84
818;BME280;391;51.052;6.954;2023-02-01T09:43:35;101393.13;;;6.42;84.88
818;BME280;391;51.052;6.954;2023-02-01T09:45:49;101393.13;;;6.42;84.27
818;BME280;391;51.052;6.954;2023-02-01T09:47:57;101383.25;;;6.34;84.40
818;BME280;391;51.052;6.954;2023-02-01T09:50:10;101321.41;;;6.24;84.64
818;BME280;391;51.052;6.954;2023-02-01T09:52:17;101253.19;;;5.78;83.99
818;BME280;391;51.052;6.954;2023-02-01T09:54:27;101391.41;;;6.42;84.45
818;BME280;391;51.052;6.954;2023-02-01T09:56:39;101379.75;;;6.34;84.64
818;BME280;391;51.052;6.954;2023-02-01T09:58:49;101385.91;;;6.36;84.67
818;BME280;391;51.052;6.954;2023-02-01T10:00:57;101374.31;;;6.29;84.96
818;BME280;391;51.052;6.954;2023-02-01T10:03:01;101371.16;;;6.35;84.43
818;BME280;391;51.052;6.954;2023-02-01T10:05:10;101379.81;;;6.35;84.52
818;BME280;391;51.052;6.954;2023-02-01T10:07:25;101375.03;;;6.27;84.66
818;BME280;391;51.052;6.954;2023-02-01T10:09:52;101375.84;;;6.26;84.71
818;BME280;391;51.052;6.954;2023-02-01T10:14:56;101374.47;;;6.32;84.83
818;BME280;391;51.052;6.954;2023-02-01T10:17:12;101365.97;;;6.19;84.94
818;BME280;391;51.052;6.954;2023-02-01T10:19:30;101371.31;;;6.22;85.40
818;BME280;391;51.052;6.954;2023-02-01T10:21:47;101357.19;;;6.31;85.21
818;BME280;391;51.052;6.954;2023-02-01T10:24:05;101358.41;;;6.54;84.74
818;BME280;391;51.052;6.954;2023-02-01T10:26:20;101363.78;;;6.57;83.81
818;BME280;391;51.052;6.954;2023-02-01T10:28:25;101368.16;;;6.58;83.75
818;BME280;391;51.052;6.954;2023-02-01T10:30:31;101359.81;;;6.64;83.56
818;BME280;391;51.052;6.954;2023-02-01T10:32:39;101362.25;;;6.77;83.50
818;BME280;391;51.052;6.954;2023-02-01T10:34:46;101360.34;;;6.89;82.52
818;BME280;391;51.052;6.954;2023-02-01T10:36:55;101359.34;;;6.87;82.37
818;BME280;391;51.052;6.954;2023-02-01T10:39:00;101365.53;;;6.89;82.67
818;BME280;391;51.052;6.954;2023-02-01T10:41:09;101361.38;;;6.92;82.28
818;BME280;391;51.052;6.954;2023-02-01T10:43:15;101361.78;;;7.16;82.29
818;BME280;391;51.052;6.954;2023-02-01T10:45:22;101351.56;;;7.35;81.54
818;BME280;391;51.052;6.954;2023-02-01T10:47:27;101343.25;;;7.59;80.25
818;BME280;391;51.052;6.954;2023-02-01T10:49:36;101342.00;;;7.86;79.88
818;BME280;391;51.052;6.954;2023-02-01T10:51:45;101339.50;;;7.87;79.11
818;BME280;391;51.052;6.954;2023-02-01T10:53:54;101357.41;;;7.65;78.37
818;BME280;391;51.052;6.954;2023-02-01T10:56:05;101344.34;;;7.64;78.81
818;BME280;391;51.052;6.954;2023-02-01T10:58:15;101336.50;;;7.80;78.80
818;BME280;391;51.052;6.954;2023-02-01T11:00:21;101327.22;;;7.85;78.20
818;BME280;391;51.052;6.954;2023-02-01T11:02:29;101354.72;;;7.46;78.69
818;BME280;391;51.052;6.954;2023-02-01T11:04:34;101319.81;;;7.23;78.89
818;BME280;391;51.052;6.954;2023-02-01T11:06:40;101357.69;;;7.37;79.42
818;BME280;391;51.052;6.954;2023-02-01T11:08:47;101378.81;;;7.27;79.12
818;BME280;391;51.052;6.954;2023-02-01T11:10:58;101355.38;;;7.10;80.11
818;BME280;391;51.052;6.954;2023-02-01T11:13:02;101340.31;;;7.19;80.43
818;BME280;391;51.052;6.954;2023-02-01T11:15:14;101332.97;;;7.44;79.56
818;BME280;391;51.052;6.954;2023-02-01T11:17:33;101321.56;;;7.24;79.71
818;BME280;391;51.052;6.954;2023-02-01T11:19:38;101333.72;;;7.25;80.17
818;BME280;391;51.052;6.954;2023-02-01T11:21:43;101345.16;;;7.29;80.05
818;BME280;391;51.052;6.954;2023-02-01T11:23:47;101328.22;;;7.19;80.33
818;BME280;391;51.052;6.954;2023-02-01T11:25:54;101329.84;;;7.33;79.98
818;BME280;391;51.052;6.954;2023-02-01T11:27:59;101334.47;;;7.23;80.41
818;BME280;391;51.052;6.954;2023-02-01T11:30:03;101321.66;;;7.26;80.46
818;BME280;391;51.052;6.954;2023-02-01T11:32:08;101337.31;;;7.27;80.40
818;BME280;391;51.052;6.954;2023-02-01T11:34:16;101322.88;;;7.32;80.01
818;BME280;391;51.052;6.954;2023-02-01T11:36:24;101301.84;;;7.10;80.40
818;BME280;391;51.052;6.954;2023-02-01T11:38:31;101326.56;;;7.37;80.22
818;BME280;391;51.052;6.954;2023-02-01T11:40:36;101321.88;;;7.47;79.87
818;BME280;391;51.052;6.954;2023-02-01T11:42:55;101318.53;;;7.49;79.45
818;BME280;391;51.052;6.954;2023-02-01T11:45:19;101322.59;;;7.44;78.87
818;BME280;391;51.052;6.954;2023-02-01T11:47:25;101307.31;;;7.32;79.16
818;BME280;391;51.052;6.954;2023-02-01T11:49:31;101299.97;;;7.24;80.02
818;BME280;391;51.052;6.954;2023-02-01T11:51:42;101302.13;;;7.32;79.51
818;BME280;391;51.052;6.954;2023-02-01T11:54:01;101307.16;;;7.29;79.72
818;BME280;391;51.052;6.954;2023-02-01T11:56:13;101291.16;;;7.38;79.56
818;BME280;391;51.052;6.954;2023-02-01T11:58:39;101286.72;;;7.35;79.99